sensor_id;sensor_type;location;lat;lon;timestamp;pressure;altitude;pressure_sealevel;temperature;humidity
47716;BME280;33476;50.984;3.538;2023-07-08T00:01:36;101585.09;;;24.03;44.17
47716;BME280;33476;50.984;3.538;2023-07-08T00:04:01;101585.66;;;23.97;44.60
47716;BME280;33476;50.984;3.538;2023-07-08T00:06:29;101580.47;;;23.96;44.20
47716;BME280;33476;50.984;3.538;2023-07-08T00:08:54;101584.66;;;23.98;43.76
47716;BME280;33476;50.984;3.538;2023-07-08T00:11:20;101578.63;;;23.96;43.91
47716;BME280;33476;50.984;3.538;2023-07-08T00:13:46;101576.81;;;23.97;43.85
47716;BME280;33476;50.984;3.538;2023-07-08T00:16:13;101574.28;;;23.95;44.35
47716;BME280;33476;50.984;3.538;2023-07-08T00:18:39;101568.69;;;23.89;44.22
47716;BME280;33476;50.984;3.538;2023-07-08T00:21:12;101574.16;;;23.87;44.88
47716;BME280;33476;50.984;3.538;2023-07-08T00:26:32;101562.06;;;23.73;45.27
47716;BME280;33476;50.984;3.538;2023-07-08T00:28:57;101566.44;;;23.74;45.33
47716;BME280;33476;50.984;3.538;2023-07-08T00:31:23;101561.94;;;23.65;45.78
47716;BME280;33476;50.984;3.538;2023-07-08T00:33:51;101567.94;;;23.58;45.59
47716;BME280;33476;50.984;3.538;2023-07-08T00:36:18;101565.00;;;23.51;45.78
47716;BME280;33476;50.984;3.538;2023-07-08T00:38:43;101565.13;;;23.49;45.95
47716;BME280;33476;50.984;3.538;2023-07-08T00:41:30;101565.13;;;23.40;45.99
47716;BME280;33476;50.984;3.538;2023-07-08T00:43:58;101567.53;;;23.43;45.64
47716;BME280;33476;50.984;3.538;2023-07-08T00:51:55;101562.59;;;23.29;46.38
47716;BME280;33476;50.984;3.538;2023-07-08T00:54:20;101565.53;;;23.25;46.88
47716;BME280;33476;50.984;3.538;2023-07-08T00:56:58;101571.56;;;23.18;46.74
47716;BME280;33476;50.984;3.538;2023-07-08T00:59:33;101552.19;;;23.16;46.41
47716;BME280;33476;50.984;3.538;2023-07-08T01:02:04;101547.97;;;23.13;46.69
47716;BME280;33476;50.984;3.538;2023-07-08T01:04:58;101548.09;;;23.02;46.80
47716;BME280;33476;50.984;3.538;2023-07-08T01:07:26;101552.00;;;23.08;46.65
47716;BME280;33476;50.984;3.538;2023-07-08T01:10:09;101552.59;;;23.02;46.56
47716;BME280;33476;50.984;3.538;2023-07-08T01:12:43;101554.53;;;22.99;46.66
47716;BME280;33476;50.984;3.538;2023-07-08T01:15:10;101552.69;;;23.00;46.03
47716;BME280;33476;50.984;3.538;2023-07-08T01:17:36;101553.56;;;23.01;45.91
47716;BME280;33476;50.984;3.538;2023-07-08T01:20:04;101545.44;;;23.02;45.98
47716;BME280;33476;50.984;3.538;2023-07-08T01:22:37;101544.31;;;23.05;45.64
47716;BME280;33476;50.984;3.538;2023-07-08T01:25:04;101546.13;;;23.04;45.81
47716;BME280;33476;50.984;3.538;2023-07-08T01:27:35;101557.50;;;23.06;45.42
47716;BME280;33476;50.984;3.538;2023-07-08T01:30:03;101555.41;;;23.10;46.04
47716;BME280;33476;50.984;3.538;2023-07-08T01:32:29;101550.09;;;23.10;46.12
47716;BME280;33476;50.984;3.538;2023-07-08T01:34:59;101549.25;;;23.09;46.32
47716;BME280;33476;50.984;3.538;2023-07-08T01:37:35;101555.41;;;23.10;46.28
47716;BME280;33476;50.984;3.538;2023-07-08T01:40:35;101551.47;;;23.04;46.42
47716;BME280;33476;50.984;3.538;2023-07-08T01:43:02;101549.34;;;23.08;46.83
47716;BME280;33476;50.984;3.538;2023-07-08T01:45:39;101551.75;;;23.01;46.64
47716;BME280;33476;50.984;3.538;2023-07-08T01:48:11;101548.50;;;22.97;46.95
47716;BME280;33476;50.984;3.538;2023-07-08T01:50:45;101546.50;;;22.90;46.64
47716;BME280;33476;50.984;3.538;2023-07-08T01:53:15;101539.63;;;22.87;46.45
47716;BME280;33476;50.984;3.538;2023-07-08T01:55:41;101540.97;;;22.82;46.99
47716;BME280;33476;50.984;3.538;2023-07-08T01:58:07;101543.22;;;22.77;47.28
47716;BME280;33476;50.984;3.538;2023-07-08T02:00:32;101538.16;;;22.74;47.04
47716;BME280;33476;50.984;3.538;2023-07-08T02:02:58;101540.13;;;22.71;46.92
47716;BME280;33476;50.984;3.538;2023-07-08T02:05:23;101530.44;;;22.70;47.16
47716;BME280;33476;50.984;3.538;2023-07-08T02:07:49;101537.59;;;22.70;46.90
47716;BME280;33476;50.984;3.538;2023-07-08T02:10:14;101535.63;;;22.72;46.99
47716;BME280;33476;50.984;3.538;2023-07-08T02:12:39;101524.97;;;22.72;46.93
47716;BME280;33476;50.984;3.538;2023-07-08T02:15:06;101522.59;;;22.69;46.82
47716;BME280;33476;50.984;3.538;2023-07-08T02:17:31;101533.50;;;22.66;47.22
47716;BME280;33476;50.984;3.538;2023-07-08T02:19:57;101537.28;;;22.63;47.21
47716;BME280;33476;50.984;3.538;2023-07-08T02:22:22;101538.81;;;22.66;46.99
47716;BME280;33476;50.984;3.538;2023-07-08T02:24:48;101542.31;;;22.66;46.90
47716;BME280;33476;50.984;3.538;2023-07-08T02:27:14;101537.28;;;22.63;46.69
47716;BME280;33476;50.984;3.538;2023-07-08T02:29:40;101554.09;;;22.64;47.15
47716;BME280;33476;50.984;3.538;2023-07-08T02:32:05;101547.09;;;22.63;47.17
47716;BME280;33476;50.984;3.538;2023-07-08T02:34:31;101543.59;;;22.62;47.16
47716;BME280;33476;50.984;3.538;2023-07-08T02:36:56;101552.69;;;22.60;46.91
47716;BME280;33476;50.984;3.538;2023-07-08T02:39:22;101548.59;;;22.56;47.14
47716;BME280;33476;50.984;3.538;2023-07-08T02:41:48;101544.81;;;22.58;47.04
47716;BME280;33476;50.984;3.538;2023-07-08T02:44:13;101539.38;;;22.60;47.12
47716;BME280;33476;50.984;3.538;2023-07-08T02:46:38;101545.41;;;22.62;46.77
47716;BME280;33476;50.984;3.538;2023-07-08T02:49:04;101544.44;;;22.63;46.85
47716;BME280;33476;50.984;3.538;2023-07-08T02:51:29;101539.94;;;22.63;47.02
47716;BME280;33476;50.984;3.538;2023-07-08T02:53:55;101534.75;;;22.62;46.73
47716;BME280;33476;50.984;3.538;2023-07-08T02:56:20;101540.22;;;22.60;46.45
47716;BME280;33476;50.984;3.538;2023-07-08T02:58:48;101543.88;;;22.59;46.72
47716;BME280;33476;50.984;3.538;2023-07-08T03:01:13;101535.59;;;22.62;46.68
47716;BME280;33476;50.984;3.538;2023-07-08T03:03:43;101534.63;;;22.63;46.77
47716;BME280;33476;50.984;3.538;2023-07-08T03:06:08;101542.88;;;22.60;46.74
47716;BME280;33476;50.984;3.538;2023-07-08T03:08:34;101546.63;;;22.58;46.45
47716;BME280;33476;50.984;3.538;2023-07-08T03:11:02;101540.31;;;22.59;46.29
47716;BME280;33476;50.984;3.538;2023-07-08T03:13:28;101543.59;;;22.62;46.21
47716;BME280;33476;50.984;3.538;2023-07-08T03:15:54;101536.28;;;22.64;46.00
47716;BME280;33476;50.984;3.538;2023-07-08T03:18:20;101539.81;;;22.65;45.68
47716;BME280;33476;50.984;3.538;2023-07-08T03:20:48;101534.47;;;22.65;45.70
47716;BME280;33476;50.984;3.538;2023-07-08T03:23:13;101537.97;;;22.65;45.88
47716;BME280;33476;50.984;3.538;2023-07-08T03:25:38;101547.09;;;22.63;45.87
47716;BME280;33476;50.984;3.538;2023-07-08T03:28:04;101540.09;;;22.62;46.34
47716;BME280;33476;50.984;3.538;2023-07-08T03:30:32;101542.03;;;22.60;46.13
47716;BME280;33476;50.984;3.538;2023-07-08T03:32:58;101544.09;;;22.56;46.19
47716;BME280;33476;50.984;3.538;2023-07-08T03:35:24;101539.91;;;22.54;46.69
47716;BME280;33476;50.984;3.538;2023-07-08T03:37:50;101537.25;;;22.54;46.48
47716;BME280;33476;50.984;3.538;2023-07-08T03:40:15;101542.28;;;22.57;46.45
47716;BME280;33476;50.984;3.538;2023-07-08T03:42:41;101541.59;;;22.55;46.34
47716;BME280;33476;50.984;3.538;2023-07-08T03:45:06;101533.03;;;22.51;46.63
47716;BME280;33476;50.984;3.538;2023-07-08T03:47:32;101535.69;;;22.51;46.65
47716;BME280;33476;50.984;3.538;2023-07-08T03:49:57;101532.44;;;22.48;46.88
47716;BME280;33476;50.984;3.538;2023-07-08T03:52:23;101531.88;;;22.44;46.76
47716;BME280;33476;50.984;3.538;2023-07-08T03:54:48;101534.69;;;22.42;46.74
47716;BME280;33476;50.984;3.538;2023-07-08T03:57:14;101534.53;;;22.44;46.67
47716;BME280;33476;50.984;3.538;2023-07-08T03:59:39;101532.88;;;22.43;46.71
47716;BME280;33476;50.984;3.538;2023-07-08T04:02:04;101535.53;;;22.43;46.68
47716;BME280;33476;50.984;3.538;2023-07-08T04:04:30;101530.19;;;22.43;46.84
47716;BME280;33476;50.984;3.538;2023-07-08T04:06:55;101531.44;;;22.39;46.63
47716;BME280;33476;50.984;3.538;2023-07-08T04:09:20;101529.03;;;22.36;46.77
47716;BME280;33476;50.984;3.538;2023-07-08T04:11:46;101521.06;;;22.36;46.92
47716;BME280;33476;50.984;3.538;2023-07-08T04:14:11;101528.19;;;22.35;47.13
47716;BME280;33476;50.984;3.538;2023-07-08T04:16:46;101524.56;;;22.36;47.05
47716;BME280;33476;50.984;3.538;2023-07-08T04:19:14;101512.50;;;22.42;46.54
47716;BME280;33476;50.984;3.538;2023-07-08T04:21:41;101523.31;;;22.40;46.79
47716;BME280;33476;50.984;3.538;2023-07-08T04:24:09;101523.31;;;22.40;46.55
47716;BME280;33476;50.984;3.538;2023-07-08T04:26:35;101524.16;;;22.41;46.68
47716;BME280;33476;50.984;3.538;2023-07-08T04:29:01;101521.25;;;22.44;47.08
47716;BME280;33476;50.984;3.538;2023-07-08T04:31:26;101530.06;;;22.45;47.45
47716;BME280;33476;50.984;3.538;2023-07-08T04:33:52;101531.03;;;22.43;47.47
47716;BME280;33476;50.984;3.538;2023-07-08T04:36:17;101535.38;;;22.45;47.29
47716;BME280;33476;50.984;3.538;2023-07-08T04:38:44;101528.94;;;22.47;47.27
47716;BME280;33476;50.984;3.538;2023-07-08T04:41:11;101522.06;;;22.45;47.88
47716;BME280;33476;50.984;3.538;2023-07-08T04:43:37;101521.94;;;22.46;48.03
47716;BME280;33476;50.984;3.538;2023-07-08T04:46:05;101516.63;;;22.46;47.92
47716;BME280;33476;50.984;3.538;2023-07-08T04:48:41;101512.84;;;22.49;48.02
47716;BME280;33476;50.984;3.538;2023-07-08T04:51:08;101510.88;;;22.51;48.09
47716;BME280;33476;50.984;3.538;2023-07-08T04:53:33;101517.06;;;22.51;48.21
47716;BME280;33476;50.984;3.538;2023-07-08T04:55:59;101508.66;;;22.56;48.21
47716;BME280;33476;50.984;3.538;2023-07-08T04:58:24;101512.88;;;22.58;48.28
47716;BME280;33476;50.984;3.538;2023-07-08T05:00:50;101517.94;;;22.61;47.99
47716;BME280;33476;50.984;3.538;2023-07-08T05:03:15;101520.31;;;22.64;47.47
47716;BME280;33476;50.984;3.538;2023-07-08T05:05:41;101523.69;;;22.66;47.47
47716;BME280;33476;50.984;3.538;2023-07-08T05:08:07;101529.59;;;22.70;47.48
47716;BME280;33476;50.984;3.538;2023-07-08T05:10:32;101519.50;;;22.74;47.61
47716;BME280;33476;50.984;3.538;2023-07-08T05:12:57;101521.91;;;22.77;47.84
47716;BME280;33476;50.984;3.538;2023-07-08T05:15:23;101527.81;;;22.80;47.02
47716;BME280;33476;50.984;3.538;2023-07-08T05:17:50;101527.53;;;22.83;47.73
47716;BME280;33476;50.984;3.538;2023-07-08T05:20:15;101525.19;;;22.90;47.22
47716;BME280;33476;50.984;3.538;2023-07-08T05:22:44;101530.97;;;22.95;47.69
47716;BME280;33476;50.984;3.538;2023-07-08T05:25:11;101526.19;;;22.98;47.78
47716;BME280;33476;50.984;3.538;2023-07-08T05:27:37;101527.47;;;23.04;47.60
47716;BME280;33476;50.984;3.538;2023-07-08T05:30:03;101521.88;;;23.07;47.41
47716;BME280;33476;50.984;3.538;2023-07-08T05:32:29;101532.13;;;23.12;47.03
47716;BME280;33476;50.984;3.538;2023-07-08T05:34:55;101538.28;;;23.12;46.67
47716;BME280;33476;50.984;3.538;2023-07-08T05:37:20;101538.00;;;23.15;47.21
47716;BME280;33476;50.984;3.538;2023-07-08T05:39:53;101541.81;;;23.22;47.03
47716;BME280;33476;50.984;3.538;2023-07-08T05:42:20;101535.50;;;23.23;46.46
47716;BME280;33476;50.984;3.538;2023-07-08T05:44:45;101536.47;;;23.22;46.36
47716;BME280;33476;50.984;3.538;2023-07-08T05:47:12;101531.84;;;23.24;46.21
47716;BME280;33476;50.984;3.538;2023-07-08T05:49:37;101529.34;;;23.33;46.86
47716;BME280;33476;50.984;3.538;2023-07-08T05:52:03;101534.13;;;23.39;47.24
47716;BME280;33476;50.984;3.538;2023-07-08T05:54:34;101522.91;;;23.45;46.98
47716;BME280;33476;50.984;3.538;2023-07-08T05:56:59;101523.44;;;23.48;46.82
47716;BME280;33476;50.984;3.538;2023-07-08T05:59:24;101521.91;;;23.55;46.91
47716;BME280;33476;50.984;3.538;2023-07-08T06:01:49;101522.22;;;23.62;46.86
47716;BME280;33476;50.984;3.538;2023-07-08T06:04:15;101536.94;;;23.66;46.39
47716;BME280;33476;50.984;3.538;2023-07-08T06:06:40;101527.56;;;23.72;46.66
47716;BME280;33476;50.984;3.538;2023-07-08T06:09:05;101527.84;;;23.78;46.60
47716;BME280;33476;50.984;3.538;2023-07-08T06:11:31;101522.63;;;23.87;46.28
47716;BME280;33476;50.984;3.538;2023-07-08T06:13:56;101530.91;;;23.93;46.34
47716;BME280;33476;50.984;3.538;2023-07-08T06:16:23;101530.88;;;24.03;46.83
47716;BME280;33476;50.984;3.538;2023-07-08T06:18:48;101525.66;;;24.11;46.48
47716;BME280;33476;50.984;3.538;2023-07-08T06:21:13;101539.97;;;24.20;46.64
47716;BME280;33476;50.984;3.538;2023-07-08T06:23:39;101541.94;;;24.27;46.72
47716;BME280;33476;50.984;3.538;2023-07-08T06:26:04;101524.63;;;24.31;46.50
47716;BME280;33476;50.984;3.538;2023-07-08T06:28:29;101517.06;;;24.36;47.13
47716;BME280;33476;50.984;3.538;2023-07-08T06:30:55;101509.16;;;24.45;46.69
47716;BME280;33476;50.984;3.538;2023-07-08T06:33:20;101500.25;;;24.54;46.66
47716;BME280;33476;50.984;3.538;2023-07-08T06:35:45;101503.88;;;24.62;46.58
47716;BME280;33476;50.984;3.538;2023-07-08T06:38:11;101505.81;;;24.70;46.21
47716;BME280;33476;50.984;3.538;2023-07-08T06:40:37;101509.56;;;24.77;46.11
47716;BME280;33476;50.984;3.538;2023-07-08T06:43:02;101517.66;;;24.85;45.96
47716;BME280;33476;50.984;3.538;2023-07-08T06:45:28;101532.41;;;24.89;45.66
47716;BME280;33476;50.984;3.538;2023-07-08T06:47:53;101532.97;;;24.93;45.43
47716;BME280;33476;50.984;3.538;2023-07-08T06:50:19;101533.66;;;24.95;44.77
47716;BME280;33476;50.984;3.538;2023-07-08T06:52:44;101545.56;;;25.01;45.29
47716;BME280;33476;50.984;3.538;2023-07-08T06:55:10;101550.72;;;25.12;44.92
47716;BME280;33476;50.984;3.538;2023-07-08T06:57:36;101567.25;;;25.25;44.92
47716;BME280;33476;50.984;3.538;2023-07-08T07:00:10;101580.56;;;25.35;44.52
47716;BME280;33476;50.984;3.538;2023-07-08T07:02:36;101576.13;;;25.43;44.44
47716;BME280;33476;50.984;3.538;2023-07-08T07:05:03;101565.34;;;25.53;44.59
47716;BME280;33476;50.984;3.538;2023-07-08T07:07:29;101559.25;;;25.61;44.53
47716;BME280;33476;50.984;3.538;2023-07-08T07:09:54;101541.59;;;25.68;44.81
47716;BME280;33476;50.984;3.538;2023-07-08T07:12:20;101525.63;;;25.76;45.31
47716;BME280;33476;50.984;3.538;2023-07-08T07:14:46;101523.69;;;25.86;44.80
47716;BME280;33476;50.984;3.538;2023-07-08T07:17:11;101526.28;;;25.96;44.94
47716;BME280;33476;50.984;3.538;2023-07-08T07:19:37;101521.81;;;26.04;44.61
47716;BME280;33476;50.984;3.538;2023-07-08T07:22:02;101515.69;;;26.12;44.50
47716;BME280;33476;50.984;3.538;2023-07-08T07:24:28;101529.78;;;26.22;44.20
47716;BME280;33476;50.984;3.538;2023-07-08T07:26:53;101543.75;;;26.34;44.83
47716;BME280;33476;50.984;3.538;2023-07-08T07:29:22;101542.84;;;26.43;43.84
47716;BME280;33476;50.984;3.538;2023-07-08T07:31:47;101545.72;;;26.50;43.36
47716;BME280;33476;50.984;3.538;2023-07-08T07:34:13;101545.78;;;26.58;43.35
47716;BME280;33476;50.984;3.538;2023-07-08T07:36:39;101543.28;;;26.65;42.99
47716;BME280;33476;50.984;3.538;2023-07-08T07:39:05;101551.34;;;26.73;42.89
47716;BME280;33476;50.984;3.538;2023-07-08T07:41:30;101550.41;;;26.82;43.60
47716;BME280;33476;50.984;3.538;2023-07-08T07:43:55;101543.34;;;26.89;42.85
47716;BME280;33476;50.984;3.538;2023-07-08T07:46:21;101545.09;;;26.98;42.91
47716;BME280;33476;50.984;3.538;2023-07-08T07:48:47;101534.41;;;27.06;42.86
47716;BME280;33476;50.984;3.538;2023-07-08T07:51:13;101537.25;;;27.13;42.22
47716;BME280;33476;50.984;3.538;2023-07-08T07:53:39;101543.34;;;27.23;41.51
47716;BME280;33476;50.984;3.538;2023-07-08T07:56:05;101535.44;;;27.30;41.66
47716;BME280;33476;50.984;3.538;2023-07-08T07:58:31;101540.81;;;27.38;41.34
47716;BME280;33476;50.984;3.538;2023-07-08T08:00:57;101548.75;;;27.48;41.54
47716;BME280;33476;50.984;3.538;2023-07-08T08:03:23;101556.63;;;27.57;41.55
47716;BME280;33476;50.984;3.538;2023-07-08T08:05:48;101560.00;;;27.67;41.38
47716;BME280;33476;50.984;3.538;2023-07-08T08:08:15;101561.03;;;27.75;40.75
47716;BME280;33476;50.984;3.538;2023-07-08T08:10:42;101555.66;;;27.83;40.85
47716;BME280;33476;50.984;3.538;2023-07-08T08:13:07;101555.00;;;27.89;40.90
47716;BME280;33476;50.984;3.538;2023-07-08T08:15:33;101555.97;;;27.96;41.22
47716;BME280;33476;50.984;3.538;2023-07-08T08:17:59;101555.81;;;28.06;41.28
47716;BME280;33476;50.984;3.538;2023-07-08T08:20:25;101554.94;;;28.13;40.93
47716;BME280;33476;50.984;3.538;2023-07-08T08:22:51;101560.66;;;28.18;40.84
47716;BME280;33476;50.984;3.538;2023-07-08T08:25:19;101560.63;;;28.35;40.50
47716;BME280;33476;50.984;3.538;2023-07-08T08:27:45;101560.47;;;28.36;41.16
47716;BME280;33476;50.984;3.538;2023-07-08T08:30:12;101554.53;;;28.57;41.32
47716;BME280;33476;50.984;3.538;2023-07-08T08:32:37;101552.59;;;28.82;39.58
47716;BME280;33476;50.984;3.538;2023-07-08T08:35:04;101541.59;;;29.00;39.52
47716;BME280;33476;50.984;3.538;2023-07-08T08:37:29;101549.16;;;29.27;39.38
47716;BME280;33476;50.984;3.538;2023-07-08T08:39:55;101546.66;;;29.49;39.29
47716;BME280;33476;50.984;3.538;2023-07-08T08:42:27;101543.69;;;29.67;40.35
47716;BME280;33476;50.984;3.538;2023-07-08T08:44:56;101541.69;;;29.83;39.58
47716;BME280;33476;50.984;3.538;2023-07-08T08:47:39;101543.94;;;29.94;40.63
47716;BME280;33476;50.984;3.538;2023-07-08T08:52:55;101532.59;;;30.22;40.86
47716;BME280;33476;50.984;3.538;2023-07-08T08:55:21;101532.75;;;30.35;39.58
47716;BME280;33476;50.984;3.538;2023-07-08T08:57:59;101532.56;;;30.52;39.99
47716;BME280;33476;50.984;3.538;2023-07-08T09:01:19;101537.16;;;30.66;39.82
47716;BME280;33476;50.984;3.538;2023-07-08T09:03:41;101539.06;;;30.87;39.69
47716;BME280;33476;50.984;3.538;2023-07-08T09:06:11;101529.66;;;30.97;38.47
47716;BME280;33476;50.984;3.538;2023-07-08T09:08:37;101537.00;;;31.03;37.27
47716;BME280;33476;50.984;3.538;2023-07-08T09:11:11;101534.34;;;31.10;36.62
47716;BME280;33476;50.984;3.538;2023-07-08T09:13:40;101539.44;;;31.20;36.30
47716;BME280;33476;50.984;3.538;2023-07-08T09:19:11;101527.13;;;31.32;35.65
47716;BME280;33476;50.984;3.538;2023-07-08T09:21:40;101541.41;;;31.47;35.17
47716;BME280;33476;50.984;3.538;2023-07-08T09:24:37;101533.81;;;31.57;34.52
47716;BME280;33476;50.984;3.538;2023-07-08T09:27:01;101539.97;;;31.73;34.73
47716;BME280;33476;50.984;3.538;2023-07-08T09:29:27;101545.25;;;31.81;34.26
47716;BME280;33476;50.984;3.538;2023-07-08T09:31:52;101541.59;;;31.89;34.17
47716;BME280;33476;50.984;3.538;2023-07-08T09:34:22;101541.88;;;32.00;34.09
47716;BME280;33476;50.984;3.538;2023-07-08T09:36:49;101538.44;;;32.13;33.42
47716;BME280;33476;50.984;3.538;2023-07-08T09:39:17;101542.66;;;32.22;33.29
47716;BME280;33476;50.984;3.538;2023-07-08T09:41:45;101543.53;;;32.29;32.59
47716;BME280;33476;50.984;3.538;2023-07-08T09:44:48;101547.91;;;32.30;33.09
47716;BME280;33476;50.984;3.538;2023-07-08T09:47:30;101544.59;;;32.35;32.88
47716;BME280;33476;50.984;3.538;2023-07-08T09:49:59;101543.03;;;32.47;33.11
47716;BME280;33476;50.984;3.538;2023-07-08T09:52:24;101538.69;;;32.59;33.81
47716;BME280;33476;50.984;3.538;2023-07-08T09:54:50;101543.97;;;32.74;33.15
47716;BME280;33476;50.984;3.538;2023-07-08T09:57:31;101544.63;;;32.83;33.33
47716;BME280;33476;50.984;3.538;2023-07-08T10:00:00;101541.16;;;32.89;32.20
47716;BME280;33476;50.984;3.538;2023-07-08T10:07:57;101533.53;;;33.25;33.97
47716;BME280;33476;50.984;3.538;2023-07-08T10:10:28;101530.44;;;33.35;33.56
47716;BME280;33476;50.984;3.538;2023-07-08T10:12:59;101526.72;;;33.43;33.26
47716;BME280;33476;50.984;3.538;2023-07-08T10:15:44;101529.88;;;33.53;33.07
47716;BME280;33476;50.984;3.538;2023-07-08T10:18:16;101529.63;;;33.68;33.10
47716;BME280;33476;50.984;3.538;2023-07-08T10:23:51;101528.81;;;33.87;32.05
47716;BME280;33476;50.984;3.538;2023-07-08T10:26:26;101519.00;;;33.93;31.85
47716;BME280;33476;50.984;3.538;2023-07-08T10:29:03;101523.59;;;33.99;31.79
47716;BME280;33476;50.984;3.538;2023-07-08T10:43:28;101519.97;;;34.38;31.10
47716;BME280;33476;50.984;3.538;2023-07-08T10:48:46;101520.97;;;34.57;30.58
47716;BME280;33476;50.984;3.538;2023-07-08T10:51:28;101520.75;;;34.58;28.57
47716;BME280;33476;50.984;3.538;2023-07-08T10:54:47;101529.34;;;34.49;28.89
47716;BME280;33476;50.984;3.538;2023-07-08T11:00:24;101526.84;;;34.47;29.30
47716;BME280;33476;50.984;3.538;2023-07-08T11:05:58;101528.00;;;34.71;29.28
47716;BME280;33476;50.984;3.538;2023-07-08T11:08:42;101528.59;;;34.80;28.13
47716;BME280;33476;50.984;3.538;2023-07-08T11:13:45;101522.06;;;34.87;27.22
47716;BME280;33476;50.984;3.538;2023-07-08T11:18:54;101527.41;;;35.07;27.23
47716;BME280;33476;50.984;3.538;2023-07-08T11:21:43;101524.91;;;35.06;27.31
47716;BME280;33476;50.984;3.538;2023-07-08T11:24:37;101523.22;;;35.11;26.59
47716;BME280;33476;50.984;3.538;2023-07-08T11:27:13;101519.47;;;35.12;26.61
47716;BME280;33476;50.984;3.538;2023-07-08T11:30:04;101516.75;;;35.12;27.05
47716;BME280;33476;50.984;3.538;2023-07-08T11:32:32;101516.38;;;35.09;26.98
47716;BME280;33476;50.984;3.538;2023-07-08T11:35:00;101519.34;;;35.01;26.63
47716;BME280;33476;50.984;3.538;2023-07-08T11:37:29;101518.94;;;34.90;27.46
47716;BME280;33476;50.984;3.538;2023-07-08T11:42:39;101511.69;;;34.78;27.15
47716;BME280;33476;50.984;3.538;2023-07-08T11:45:25;101501.06;;;34.76;27.25
47716;BME280;33476;50.984;3.538;2023-07-08T11:47:51;101506.66;;;34.81;27.32
47716;BME280;33476;50.984;3.538;2023-07-08T11:50:24;101500.91;;;34.64;26.52
47716;BME280;33476;50.984;3.538;2023-07-08T11:53:13;101503.09;;;34.43;26.88
47716;BME280;33476;50.984;3.538;2023-07-08T11:55:49;101504.13;;;34.35;26.95
47716;BME280;33476;50.984;3.538;2023-07-08T11:58:31;101508.09;;;34.32;27.54
47716;BME280;33476;50.984;3.538;2023-07-08T12:03:37;101514.78;;;34.23;27.04
47716;BME280;33476;50.984;3.538;2023-07-08T12:09:00;101528.19;;;34.12;27.37
47716;BME280;33476;50.984;3.538;2023-07-08T12:11:40;101521.72;;;33.99;27.75
47716;BME280;33476;50.984;3.538;2023-07-08T12:14:07;101518.41;;;33.91;27.62
47716;BME280;33476;50.984;3.538;2023-07-08T12:16:34;101514.00;;;33.83;27.60
47716;BME280;33476;50.984;3.538;2023-07-08T12:19:00;101519.22;;;33.85;27.64
47716;BME280;33476;50.984;3.538;2023-07-08T12:21:27;101511.94;;;33.85;28.51
47716;BME280;33476;50.984;3.538;2023-07-08T12:23:53;101512.53;;;33.87;28.19
47716;BME280;33476;50.984;3.538;2023-07-08T12:26:18;101506.94;;;33.89;28.22
47716;BME280;33476;50.984;3.538;2023-07-08T12:28:44;101508.78;;;33.81;28.13
47716;BME280;33476;50.984;3.538;2023-07-08T12:31:18;101509.22;;;33.78;28.06
47716;BME280;33476;50.984;3.538;2023-07-08T12:33:44;101500.88;;;33.87;28.18
47716;BME280;33476;50.984;3.538;2023-07-08T12:36:18;101510.06;;;33.86;27.51
47716;BME280;33476;50.984;3.538;2023-07-08T12:38:44;101510.66;;;33.88;28.47
47716;BME280;33476;50.984;3.538;2023-07-08T12:41:31;101523.59;;;33.92;28.22
47716;BME280;33476;50.984;3.538;2023-07-08T12:43:58;101514.19;;;34.15;27.92
47716;BME280;33476;50.984;3.538;2023-07-08T12:46:24;101514.97;;;34.35;27.57
47716;BME280;33476;50.984;3.538;2023-07-08T12:48:50;101514.13;;;34.41;27.76
47716;BME280;33476;50.984;3.538;2023-07-08T12:51:21;101518.72;;;34.41;27.28
47716;BME280;33476;50.984;3.538;2023-07-08T12:53:47;101515.19;;;34.40;27.62
47716;BME280;33476;50.984;3.538;2023-07-08T12:56:12;101522.47;;;34.33;28.23
47716;BME280;33476;50.984;3.538;2023-07-08T12:58:43;101520.00;;;34.25;28.67
47716;BME280;33476;50.984;3.538;2023-07-08T13:01:16;101511.03;;;34.24;28.44
47716;BME280;33476;50.984;3.538;2023-07-08T13:03:45;101514.97;;;34.35;28.70
47716;BME280;33476;50.984;3.538;2023-07-08T13:06:16;101514.13;;;34.41;28.81
47716;BME280;33476;50.984;3.538;2023-07-08T13:08:42;101528.94;;;34.39;28.53
47716;BME280;33476;50.984;3.538;2023-07-08T13:11:08;101528.94;;;34.32;28.78
47716;BME280;33476;50.984;3.538;2023-07-08T13:13:37;101522.69;;;34.38;28.86
47716;BME280;33476;50.984;3.538;2023-07-08T13:16:04;101520.16;;;34.50;29.17
47716;BME280;33476;50.984;3.538;2023-07-08T13:18:31;101528.28;;;34.56;28.65
47716;BME280;33476;50.984;3.538;2023-07-08T13:20:58;101524.94;;;34.54;28.77
47716;BME280;33476;50.984;3.538;2023-07-08T13:23:24;101532.25;;;34.54;28.71
47716;BME280;33476;50.984;3.538;2023-07-08T13:25:51;101535.41;;;34.51;29.21
47716;BME280;33476;50.984;3.538;2023-07-08T13:28:40;101531.06;;;34.43;29.23
47716;BME280;33476;50.984;3.538;2023-07-08T13:31:20;101538.31;;;34.49;29.31
47716;BME280;33476;50.984;3.538;2023-07-08T13:33:55;101532.28;;;34.47;29.16
47716;BME280;33476;50.984;3.538;2023-07-08T13:36:40;101539.38;;;34.42;29.86
47716;BME280;33476;50.984;3.538;2023-07-08T13:39:12;101539.81;;;34.45;33.76
47716;BME280;33476;50.984;3.538;2023-07-08T13:41:43;101547.09;;;34.38;32.91
47716;BME280;33476;50.984;3.538;2023-07-08T13:44:09;101546.69;;;34.34;31.45
47716;BME280;33476;50.984;3.538;2023-07-08T13:46:37;101554.41;;;34.24;31.49
47716;BME280;33476;50.984;3.538;2023-07-08T13:49:12;101552.75;;;34.17;31.83
47716;BME280;33476;50.984;3.538;2023-07-08T13:51:38;101559.22;;;34.22;31.87
47716;BME280;33476;50.984;3.538;2023-07-08T13:54:23;101548.38;;;34.22;32.19
47716;BME280;33476;50.984;3.538;2023-07-08T13:56:50;101548.38;;;34.22;33.01